createdAt,value
2018-06-05T00:02:30.587Z,100438.70
2018-06-05T00:05:04.052Z,100426.59
2018-06-05T00:07:37.420Z,100430.58
2018-06-05T00:10:10.810Z,100431.70
2018-06-05T00:12:44.189Z,100429.94
2018-06-05T00:15:17.588Z,100433.42
2018-06-05T00:17:51.165Z,100432.11
2018-06-05T00:20:24.564Z,100432.57
2018-06-05T00:22:57.929Z,100428.98
2018-06-05T00:25:31.302Z,100428.33
2018-06-05T00:28:04.747Z,100427.97
2018-06-05T00:30:38.120Z,100431.08
2018-06-05T00:33:11.481Z,100425.72
2018-06-05T00:35:44.985Z,100433.67
2018-06-05T00:38:18.987Z,100431.02
2018-06-05T00:40:52.375Z,100429.72
2018-06-05T00:43:25.745Z,100434.03
2018-06-05T00:45:59.132Z,100435.46
2018-06-05T00:48:32.505Z,100432.67
2018-06-05T00:51:17.069Z,100432.04
2018-06-05T00:53:51.036Z,100437.02
2018-06-05T00:56:24.425Z,100433.33
2018-06-05T00:58:57.867Z,100437.58
2018-06-05T01:01:31.247Z,100432.41
2018-06-05T01:04:04.648Z,100427.16
2018-06-05T01:06:38.031Z,100434.63
2018-06-05T01:09:11.699Z,100424.28
2018-06-05T01:11:45.114Z,100425.11
2018-06-05T01:14:19.071Z,100427.59
2018-06-05T01:16:52.461Z,100424.11
2018-06-05T01:19:25.824Z,100431.48
2018-06-05T01:21:59.195Z,100430.94
2018-06-05T01:24:32.595Z,100428.72
2018-06-05T01:27:06.041Z,100427.06
2018-06-05T01:29:39.591Z,100423.64
2018-06-05T01:32:12.972Z,100424.30
2018-06-05T01:34:46.328Z,100423.08
2018-06-05T01:37:20.651Z,100425.12
2018-06-05T01:39:54.091Z,100420.42
2018-06-05T01:42:27.481Z,100420.06
2018-06-05T01:45:00.875Z,100421.13
2018-06-05T01:47:34.228Z,100423.62
2018-06-05T01:50:07.598Z,100419.27
2018-06-05T01:52:40.986Z,100421.39
2018-06-05T01:55:14.374Z,100413.56
2018-06-05T01:57:49.414Z,100416.78
2018-06-05T02:00:22.794Z,100413.56
2018-06-05T02:02:56.192Z,100413.17
2018-06-05T02:05:29.571Z,100410.52
2018-06-05T02:08:02.939Z,100404.95
2018-06-05T02:10:36.316Z,100403.75
2018-06-05T02:13:09.721Z,100408.09
2018-06-05T02:15:43.155Z,100401.27
2018-06-05T02:18:16.520Z,100401.27
2018-06-05T02:20:50.615Z,100404.28
2018-06-05T02:23:24.063Z,100402.57
2018-06-05T02:25:57.467Z,100411.45
2018-06-05T02:28:30.857Z,100412.16
2018-06-05T02:31:04.245Z,100398.79
2018-06-05T02:33:37.611Z,100405.35
2018-06-05T02:36:10.991Z,100396.27
2018-06-05T02:38:44.359Z,100395.61
2018-06-05T02:41:18.006Z,100395.31
2018-06-05T02:43:51.378Z,100398.27
2018-06-05T02:46:24.780Z,100395.84
2018-06-05T02:48:58.145Z,100397.20
2018-06-05T02:51:31.538Z,100394.06
2018-06-05T02:54:04.909Z,100393.27
2018-06-05T02:56:38.309Z,100390.75
2018-06-05T02:59:11.675Z,100391.61
2018-06-05T03:01:45.120Z,100384.08
2018-06-05T03:04:19.259Z,100390.84
2018-06-05T03:06:52.695Z,100389.19
2018-06-05T03:09:26.061Z,100392.44
2018-06-05T03:11:59.483Z,100391.77
2018-06-05T03:14:32.856Z,100398.97
2018-06-05T03:17:06.236Z,100392.41
2018-06-05T03:19:39.619Z,100400.19
2018-06-05T03:22:13.017Z,100398.90
2018-06-05T03:24:46.393Z,100396.78
2018-06-05T03:27:20.284Z,100401.95
2018-06-05T03:29:53.658Z,100402.31
2018-06-05T03:32:27.043Z,100405.36
2018-06-05T03:35:00.424Z,100412.19
2018-06-05T03:37:33.803Z,100410.80
2018-06-05T03:40:07.188Z,100419.69
2018-06-05T03:42:40.582Z,100416.27
2018-06-05T03:45:13.954Z,100419.13
2018-06-05T03:47:47.392Z,100417.03
2018-06-05T03:50:21.528Z,100418.95
2018-06-05T03:52:54.921Z,100417.59
2018-06-05T03:55:28.322Z,100424.88
2018-06-05T03:58:01.701Z,100428.09
2018-06-05T04:00:35.078Z,100423.09
2018-06-05T04:03:08.471Z,100423.78
2018-06-05T04:05:41.840Z,100426.99
2018-06-05T04:08:15.239Z,100426.63
2018-06-05T04:10:49.235Z,100430.60
2018-06-05T04:13:22.649Z,100437.33
2018-06-05T04:15:56.002Z,100441.51
2018-06-05T04:18:29.381Z,100445.23
2018-06-05T04:21:02.739Z,100447.34
2018-06-05T04:23:36.121Z,100449.31
2018-06-05T04:26:09.489Z,100453.95
2018-06-05T04:28:42.873Z,100457.27
2018-06-05T04:31:16.243Z,100460.02
2018-06-05T04:33:49.925Z,100464.45
2018-06-05T04:36:23.289Z,100459.12
2018-06-05T04:38:56.679Z,100469.20
2018-06-05T04:41:30.061Z,100475.53
2018-06-05T04:44:03.456Z,100479.41
2018-06-05T04:46:36.831Z,100484.30
2018-06-05T04:49:10.220Z,100486.59
2018-06-05T04:51:43.717Z,100482.05
2018-06-05T04:54:17.126Z,100484.06
2018-06-05T04:56:51.485Z,100481.42
2018-06-05T04:59:24.887Z,100484.52
2018-06-05T05:01:58.274Z,100467.84
2018-06-05T05:04:31.630Z,100487.00
2018-06-05T05:07:05.059Z,100488.04
2018-06-05T05:09:38.422Z,100488.34
2018-06-05T05:12:11.831Z,100492.06
2018-06-05T05:14:45.222Z,100488.18
2018-06-05T05:17:19.032Z,100495.64
2018-06-05T05:19:52.694Z,100500.97
2018-06-05T05:22:26.079Z,100500.23
2018-06-05T05:24:59.459Z,100504.68
2018-06-05T05:27:32.875Z,100498.52
2018-06-05T05:30:06.281Z,100498.73
2018-06-05T05:32:39.671Z,100502.72
2018-06-05T05:35:13.055Z,100500.21
2018-06-05T05:37:46.488Z,100508.17
2018-06-05T05:40:20.499Z,100502.23
2018-06-05T05:42:53.897Z,100503.47
2018-06-05T05:45:27.273Z,100504.66
2018-06-05T05:48:00.661Z,100508.09
2018-06-05T05:50:34.020Z,100509.13
2018-06-05T05:53:07.414Z,100506.90
2018-06-05T05:55:40.789Z,100506.88
2018-06-05T05:58:14.218Z,100506.41
2018-06-05T06:00:47.622Z,100503.73
2018-06-05T06:03:21.623Z,100514.89
2018-06-05T06:05:55.018Z,100509.45
2018-06-05T06:08:28.411Z,100519.54
2018-06-05T06:11:01.780Z,100520.30
2018-06-05T06:13:35.349Z,100514.90
2018-06-05T06:16:08.745Z,100523.45
2018-06-05T06:18:42.128Z,100529.09
2018-06-05T06:21:15.500Z,100528.55
2018-06-05T06:23:49.099Z,100534.77
2018-06-05T06:26:22.538Z,100529.61
2018-06-05T06:28:55.952Z,100535.94
2018-06-05T06:31:29.336Z,100539.48
2018-06-05T06:34:02.729Z,100534.59
2018-06-05T06:36:36.103Z,100541.08
2018-06-05T06:39:10.510Z,100544.88
2018-06-05T06:41:43.894Z,100538.74
2018-06-05T06:44:17.408Z,100540.34
2018-06-05T06:46:51.252Z,100539.59
2018-06-05T06:49:24.650Z,100550.62
2018-06-05T06:51:58.037Z,100538.70
2018-06-05T06:54:31.436Z,100547.31
2018-06-05T06:57:04.817Z,100546.84
2018-06-05T06:59:38.204Z,100553.67
2018-06-05T07:02:11.569Z,100551.66
2018-06-05T07:04:44.977Z,100554.73
2018-06-05T07:07:19.053Z,100555.45
2018-06-05T07:09:52.446Z,100552.02
2018-06-05T07:12:25.829Z,100557.75
2018-06-05T07:14:59.215Z,100546.84
2018-06-05T07:17:32.616Z,100552.11
2018-06-05T07:20:06.020Z,100551.62
2018-06-05T07:22:39.384Z,100547.53
2018-06-05T07:25:12.759Z,100548.76
2018-06-05T07:27:46.195Z,100568.87
2018-06-05T07:30:19.908Z,100562.40
2018-06-05T07:32:53.275Z,100563.41
2018-06-05T07:35:26.691Z,100562.37
2018-06-05T07:38:00.076Z,100552.66
2018-06-05T07:40:33.494Z,100557.04
2018-06-05T07:43:06.893Z,100557.30
2018-06-05T07:45:40.297Z,100554.59
2018-06-05T07:48:13.678Z,100553.87
2018-06-05T07:50:47.128Z,100556.11
2018-06-05T07:53:21.225Z,100548.56
2018-06-05T07:55:54.626Z,100559.73
2018-06-05T07:58:27.985Z,100551.97
2018-06-05T08:01:01.410Z,100548.40
2018-06-05T08:03:34.777Z,100546.63
2018-06-05T08:06:08.176Z,100543.66
2018-06-05T08:08:42.044Z,100540.31
2018-06-05T08:11:15.435Z,100543.20
2018-06-05T08:13:50.554Z,100543.55
2018-06-05T08:16:23.916Z,100544.08
2018-06-05T08:18:57.320Z,100546.52
2018-06-05T08:21:30.704Z,100542.05
2018-06-05T08:24:04.082Z,100552.14
2018-06-05T08:26:48.998Z,100549.19
2018-06-05T08:29:22.492Z,100551.80
2018-06-05T08:31:55.866Z,100554.73
2018-06-05T08:34:29.275Z,100551.44
2018-06-05T08:37:02.645Z,100546.58
2018-06-05T08:39:36.060Z,100549.17
2018-06-05T08:42:09.428Z,100550.09
2018-06-05T08:44:42.856Z,100540.37
2018-06-05T08:47:16.260Z,100547.77
2018-06-05T08:49:50.502Z,100549.44
2018-06-05T08:52:23.869Z,100546.41
2018-06-05T08:54:57.277Z,100546.31
2018-06-05T08:57:30.625Z,100547.25
2018-06-05T09:00:04.103Z,100541.09
2018-06-05T09:02:37.480Z,100542.40
2018-06-05T09:05:10.900Z,100545.95
2018-06-05T09:07:44.275Z,100539.67
2018-06-05T09:10:17.672Z,100551.18
2018-06-05T09:12:51.654Z,100552.94
2018-06-05T09:15:25.039Z,100548.08
2018-06-05T09:17:58.408Z,100555.19
2018-06-05T09:20:31.815Z,100556.86
2018-06-05T09:23:05.174Z,100555.09
2018-06-05T09:25:38.570Z,100558.05
2018-06-05T09:28:11.942Z,100553.42
2018-06-05T09:30:45.371Z,100558.27
2018-06-05T09:33:20.452Z,100554.52
2018-06-05T09:35:53.834Z,100552.59
2018-06-05T09:38:27.207Z,100549.23
2018-06-05T09:41:00.596Z,100544.25
2018-06-05T09:43:36.760Z,100548.98
2018-06-05T09:46:10.142Z,100547.30
2018-06-05T09:48:43.519Z,100547.50
2018-06-05T09:51:16.942Z,100544.75
2018-06-05T09:53:50.625Z,100553.14
2018-06-05T09:56:24.016Z,100555.56
2018-06-05T09:58:57.398Z,100558.36
2018-06-05T10:01:30.790Z,100560.16
2018-06-05T10:04:04.192Z,100557.61
2018-06-05T10:06:37.592Z,100558.10
2018-06-05T10:09:10.969Z,100551.59
2018-06-05T10:11:44.415Z,100547.81
2018-06-05T10:14:18.089Z,100554.55
2018-06-05T10:16:51.514Z,100550.38
2018-06-05T10:19:24.933Z,100549.25
2018-06-05T10:21:58.388Z,100553.53
2018-06-05T10:24:31.753Z,100553.65
2018-06-05T10:27:05.206Z,100554.63
2018-06-05T10:29:38.626Z,100548.99
2018-06-05T10:32:12.020Z,100547.73
2018-06-05T10:34:45.441Z,100550.29
2018-06-05T10:37:19.477Z,100546.75
2018-06-05T10:39:52.847Z,100539.75
2018-06-05T10:42:26.242Z,100541.30
2018-06-05T10:44:59.648Z,100530.79
2018-06-05T10:47:33.044Z,100537.63
2018-06-05T10:50:06.422Z,100531.91
2018-06-05T10:52:39.815Z,100533.22
2018-06-05T10:55:13.180Z,100525.75
2018-06-05T10:57:46.604Z,100528.66
2018-06-05T11:00:20.680Z,100534.01
2018-06-05T11:02:54.053Z,100528.36
2018-06-05T11:05:27.647Z,100532.20
2018-06-05T11:08:01.019Z,100529.11
2018-06-05T11:10:34.424Z,100525.22
2018-06-05T11:13:07.827Z,100524.36
2018-06-05T11:15:41.199Z,100530.08
2018-06-05T11:18:14.573Z,100529.42
2018-06-05T11:20:47.990Z,100532.80
2018-06-05T11:23:21.387Z,100527.12
2018-06-05T11:25:54.808Z,100524.68
2018-06-05T11:28:28.168Z,100516.37
2018-06-05T11:31:01.599Z,100521.34
2018-06-05T11:33:35.004Z,100515.19
2018-06-05T11:36:08.406Z,100513.81
2018-06-05T11:38:41.799Z,100517.66
2018-06-05T11:41:21.540Z,100517.38
2018-06-05T11:43:54.898Z,100515.95
2018-06-05T11:46:28.268Z,100515.25
2018-06-05T11:49:01.644Z,100515.41
2018-06-05T11:51:35.042Z,100521.56
2018-06-05T11:54:08.454Z,100513.61
2018-06-05T11:56:41.828Z,100516.38
2018-06-05T11:59:15.232Z,100511.89
2018-06-05T12:01:49.414Z,100510.85
2018-06-05T12:04:22.997Z,100511.39
2018-06-05T12:06:56.457Z,100509.12
2018-06-05T12:09:29.831Z,100510.44
2018-06-05T12:12:03.283Z,100508.45
2018-06-05T12:14:36.657Z,100503.45
2018-06-05T12:17:10.067Z,100504.63
2018-06-05T12:19:43.461Z,100502.37
2018-06-05T12:22:16.837Z,100499.13
2018-06-05T12:24:51.060Z,100493.12
2018-06-05T12:27:24.439Z,100496.23
2018-06-05T12:29:57.801Z,100494.55
2018-06-05T12:32:31.189Z,100489.47
2018-06-05T12:35:04.540Z,100475.59
2018-06-05T12:37:37.935Z,100483.89
2018-06-05T12:40:11.404Z,100486.02
2018-06-05T12:42:44.816Z,100482.63
2018-06-05T12:45:18.447Z,100480.22
2018-06-05T12:47:51.855Z,100479.87
2018-06-05T12:50:25.280Z,100484.89
2018-06-05T12:52:58.683Z,100483.80
2018-06-05T12:55:32.130Z,100479.16
2018-06-05T12:58:05.737Z,100478.83
2018-06-05T13:00:39.140Z,100482.48
2018-06-05T13:03:12.524Z,100490.78
2018-06-05T13:05:45.904Z,100486.42
2018-06-05T13:08:20.077Z,100471.67
2018-06-05T13:10:53.485Z,100480.02
2018-06-05T13:13:26.900Z,100483.03
2018-06-05T13:16:00.290Z,100477.88
2018-06-05T13:18:33.675Z,100480.84
2018-06-05T13:21:07.172Z,100470.02
2018-06-05T13:23:40.584Z,100476.09
2018-06-05T13:26:13.944Z,100475.33
2018-06-05T13:28:47.398Z,100472.16
2018-06-05T13:31:21.451Z,100474.78
2018-06-05T13:33:54.836Z,100472.49
2018-06-05T13:36:28.207Z,100474.08
2018-06-05T13:39:01.598Z,100476.17
2018-06-05T13:41:41.624Z,100472.69
2018-06-05T13:44:15.053Z,100470.30
2018-06-05T13:46:48.961Z,100471.73
2018-06-05T13:49:22.340Z,100473.87
2018-06-05T13:51:55.731Z,100465.02
2018-06-05T13:54:29.114Z,100470.66
2018-06-05T13:57:02.492Z,100472.24
2018-06-05T13:59:35.883Z,100471.64
2018-06-05T14:02:09.257Z,100468.48
2018-06-05T14:04:42.705Z,100469.56
2018-06-05T14:07:16.076Z,100472.61
2018-06-05T14:09:49.821Z,100460.59
2018-06-05T14:12:23.225Z,100464.59
2018-06-05T14:14:56.672Z,100466.84
2018-06-05T14:17:30.075Z,100464.02
2018-06-05T14:20:03.500Z,100454.38
2018-06-05T14:22:36.911Z,100458.07
2018-06-05T14:25:10.274Z,100459.11
2018-06-05T14:27:43.668Z,100454.58
2018-06-05T14:30:17.063Z,100451.52
2018-06-05T14:32:51.048Z,100447.59
2018-06-05T14:35:24.437Z,100449.55
2018-06-05T14:37:57.824Z,100448.91
2018-06-05T14:40:31.179Z,100447.59
2018-06-05T14:43:04.558Z,100446.77
2018-06-05T14:45:37.948Z,100447.11
2018-06-05T14:48:11.347Z,100436.51
2018-06-05T14:50:44.717Z,100440.10
2018-06-05T14:53:18.131Z,100441.47
2018-06-05T14:55:51.551Z,100445.67
2018-06-05T14:58:24.932Z,100441.87
2018-06-05T15:00:58.334Z,100445.61
2018-06-05T15:03:31.718Z,100440.49
2018-06-05T15:06:05.105Z,100440.06
2018-06-05T15:08:38.500Z,100441.31
2018-06-05T15:11:11.870Z,100436.72
2018-06-05T15:13:45.282Z,100435.19
2018-06-05T15:16:20.311Z,100438.34
2018-06-05T15:18:53.729Z,100443.04
2018-06-05T15:21:27.090Z,100436.40
2018-06-05T15:24:00.466Z,100439.84
2018-06-05T15:26:33.938Z,100439.51
2018-06-05T15:29:07.301Z,100442.90
2018-06-05T15:31:40.690Z,100439.17
2018-06-05T15:34:14.137Z,100429.47
2018-06-05T15:36:47.468Z,100429.34
2018-06-05T15:39:21.980Z,100421.82
2018-06-05T15:41:55.352Z,100421.84
2018-06-05T15:44:28.738Z,100427.39
2018-06-05T15:47:02.103Z,100429.07
2018-06-05T15:49:35.507Z,100434.70
2018-06-05T15:52:08.899Z,100430.99
2018-06-05T15:54:42.299Z,100429.83
2018-06-05T15:57:15.677Z,100430.50
2018-06-05T15:59:49.099Z,100426.45
2018-06-05T16:02:22.457Z,100425.87
2018-06-05T16:04:55.863Z,100427.55
2018-06-05T16:07:29.521Z,100422.86
2018-06-05T16:10:02.999Z,100423.52
2018-06-05T16:12:36.379Z,100420.14
2018-06-05T16:15:09.972Z,100426.09
2018-06-05T16:17:43.355Z,100423.95
2018-06-05T16:20:16.833Z,100428.64
2018-06-05T16:22:50.479Z,100423.56
2018-06-05T16:25:23.869Z,100418.44
2018-06-05T16:27:57.227Z,100417.91
2018-06-05T16:30:30.663Z,100419.97
2018-06-05T16:39:00.099Z,100411.02
2018-06-05T16:41:33.738Z,100407.73
2018-06-05T16:44:07.130Z,100413.22
2018-06-05T16:46:40.437Z,100403.91
2018-06-05T16:49:14.308Z,100403.20
2018-06-05T16:51:47.619Z,100400.86
2018-06-05T16:54:20.986Z,100393.41
2018-06-05T16:56:54.648Z,100393.31
2018-06-05T16:59:27.962Z,100398.92
2018-06-05T17:02:01.268Z,100393.03
2018-06-05T17:04:34.617Z,100396.69
2018-06-05T17:07:08.048Z,100402.39
2018-06-05T17:09:41.413Z,100397.97
2018-06-05T17:12:14.811Z,100394.43
2018-06-05T17:14:48.117Z,100398.41
2018-06-05T17:17:21.456Z,100396.63
2018-06-05T17:19:54.815Z,100406.94
2018-06-05T17:22:28.110Z,100398.23
2018-06-05T17:25:01.525Z,100404.64
2018-06-05T17:27:34.930Z,100401.20
2018-06-05T17:30:08.300Z,100402.53
2018-06-05T17:32:41.766Z,100410.31
2018-06-05T17:35:15.129Z,100412.48
2018-06-05T17:37:48.467Z,100404.31
2018-06-05T17:40:22.660Z,100408.15
2018-06-05T17:42:55.921Z,100412.80
2018-06-05T17:45:29.497Z,100413.85
2018-06-05T17:48:02.830Z,100416.89
2018-06-05T17:50:36.177Z,100414.34
2018-06-05T17:53:09.704Z,100420.88
2018-06-05T17:55:43.077Z,100423.06
2018-06-05T17:58:16.477Z,100421.30
2018-06-05T18:00:49.880Z,100421.90
2018-06-05T18:03:23.957Z,100422.66
2018-06-05T18:05:57.328Z,100426.98
2018-06-05T18:08:30.791Z,100436.07
2018-06-05T18:11:04.969Z,100435.03
2018-06-05T18:13:38.441Z,100436.87
2018-06-05T18:16:11.892Z,100433.14
2018-06-05T18:18:45.323Z,100432.52
2018-06-05T18:21:18.662Z,100437.68
2018-06-05T18:23:52.442Z,100439.78
2018-06-05T18:26:25.763Z,100445.47
2018-06-05T18:28:59.363Z,100444.83
2018-06-05T18:31:32.749Z,100450.39
2018-06-05T18:34:06.108Z,100445.31
2018-06-05T18:36:39.502Z,100444.27
2018-06-05T18:39:12.864Z,100449.76
2018-06-05T18:41:46.248Z,100445.64
2018-06-05T18:44:19.592Z,100454.14
2018-06-05T18:46:53.020Z,100463.02
2018-06-05T18:49:26.341Z,100461.45
2018-06-05T18:51:59.691Z,100467.92
2018-06-05T18:54:33.056Z,100471.37
2018-06-05T18:57:06.401Z,100470.33
2018-06-05T18:59:39.713Z,100473.22
2018-06-05T19:02:13.040Z,100473.34
2018-06-05T19:04:46.339Z,100477.67
2018-06-05T19:07:20.145Z,100473.53
2018-06-05T19:09:54.074Z,100485.33
2018-06-05T19:12:27.564Z,100483.07
2018-06-05T19:15:00.934Z,100488.44
2018-06-05T19:17:34.349Z,100487.90
2018-06-05T19:20:07.788Z,100497.07
2018-06-05T19:22:41.149Z,100505.51
2018-06-05T19:25:14.464Z,100503.25
2018-06-05T19:27:47.857Z,100509.06
2018-06-05T19:30:21.157Z,100512.62
2018-06-05T19:32:54.560Z,100508.53
2018-06-05T19:35:27.918Z,100513.95
2018-06-05T19:38:01.945Z,100519.27
2018-06-05T19:40:35.312Z,100517.59
2018-06-05T19:43:08.670Z,100523.34
2018-06-05T19:45:42.721Z,100528.73
2018-06-05T19:48:16.089Z,100532.91
2018-06-05T19:50:49.425Z,100535.60
2018-06-05T19:53:23.041Z,100533.30
2018-06-05T19:55:56.740Z,100537.77
2018-06-05T19:58:30.349Z,100533.02
2018-06-05T20:01:03.650Z,100540.03
2018-06-05T20:03:37.174Z,100539.58
2018-06-05T20:06:10.642Z,100544.48
2018-06-05T20:08:44.005Z,100548.25
2018-06-05T20:11:17.480Z,100550.44
2018-06-05T20:13:50.987Z,100545.00
2018-06-05T20:16:25.189Z,100545.86
2018-06-05T20:18:58.659Z,100553.44
2018-06-05T20:21:32.203Z,100549.80
2018-06-05T20:24:05.652Z,100555.13
2018-06-05T20:26:39.041Z,100554.45
2018-06-05T20:29:12.412Z,100557.30
2018-06-05T20:31:45.793Z,100556.86
2018-06-05T20:34:19.182Z,100553.01
2018-06-05T20:36:52.602Z,100553.87
2018-06-05T20:39:25.903Z,100557.24
2018-06-05T20:42:00.212Z,100557.27
2018-06-05T20:44:33.561Z,100557.66
2018-06-05T20:47:07.016Z,100564.17
2018-06-05T20:49:40.356Z,100556.77
2018-06-05T20:52:13.876Z,100564.03
2018-06-05T20:54:47.292Z,100565.89
2018-06-05T20:57:20.710Z,100568.22
2018-06-05T20:59:54.633Z,100571.30
2018-06-05T21:02:28.027Z,100570.38
2018-06-05T21:05:01.506Z,100574.63
2018-06-05T21:07:34.882Z,100575.83
2018-06-05T21:10:08.225Z,100584.80
2018-06-05T21:12:41.620Z,100585.19
2018-06-05T21:15:15.091Z,100588.05
2018-06-05T21:17:48.469Z,100588.78
2018-06-05T21:20:22.824Z,100592.19
2018-06-05T21:22:56.140Z,100593.13
2018-06-05T21:25:29.988Z,100594.20
2018-06-05T21:28:03.350Z,100604.17
2018-06-05T21:30:36.686Z,100605.57
2018-06-05T21:33:10.100Z,100605.57
2018-06-05T21:35:43.732Z,100611.66
2018-06-05T21:38:17.096Z,100609.16
2018-06-05T21:40:50.470Z,100609.41
2018-06-05T21:43:24.233Z,100615.66
2018-06-05T21:45:57.599Z,100624.03
2018-06-05T21:48:31.337Z,100623.71
2018-06-05T21:51:04.748Z,100633.01
2018-06-05T21:53:38.119Z,100632.64
2018-06-05T21:56:11.445Z,100633.94
2018-06-05T21:58:44.875Z,100638.08
2018-06-05T22:01:18.213Z,100639.61
2018-06-05T22:03:51.637Z,100637.42
2018-06-05T22:06:24.944Z,100644.28
2018-06-05T22:08:58.371Z,100640.59
2018-06-05T22:11:31.797Z,100642.72
2018-06-05T22:14:05.176Z,100651.02
2018-06-05T22:16:38.514Z,100648.72
2018-06-05T22:19:11.962Z,100653.73
2018-06-05T22:21:45.329Z,100652.52
2018-06-05T22:24:18.702Z,100655.41
2018-06-05T22:26:52.589Z,100658.95
2018-06-05T22:29:25.904Z,100659.78
2018-06-05T22:31:59.559Z,100660.75
2018-06-05T22:34:32.927Z,100661.33
2018-06-05T22:37:06.465Z,100668.72
2018-06-05T22:39:40.048Z,100666.50
2018-06-05T22:42:13.729Z,100673.34
2018-06-05T22:44:47.308Z,100673.77
2018-06-05T22:47:20.845Z,100675.36
2018-06-05T22:49:55.173Z,100679.38
2018-06-05T22:52:29.515Z,100679.15
2018-06-05T22:55:03.173Z,100682.60
2018-06-05T22:57:36.702Z,100678.72
2018-06-05T23:00:10.799Z,100690.90
2018-06-05T23:02:44.334Z,100681.80
2018-06-05T23:05:17.861Z,100683.25
2018-06-05T23:07:52.492Z,100687.30
2018-06-05T23:10:25.950Z,100688.38
2018-06-05T23:12:59.489Z,100694.09
2018-06-05T23:15:32.863Z,100695.57
2018-06-05T23:18:06.255Z,100690.63
2018-06-05T23:20:39.653Z,100688.44
2018-06-05T23:23:13.213Z,100692.89
2018-06-05T23:25:46.552Z,100700.97
2018-06-05T23:28:19.950Z,100698.22
2018-06-05T23:30:53.768Z,100693.73
2018-06-05T23:33:27.283Z,100695.23
2018-06-05T23:36:00.616Z,100693.27
2018-06-05T23:38:33.971Z,100699.06
2018-06-05T23:41:07.337Z,100702.26
2018-06-05T23:43:40.720Z,100705.00
2018-06-05T23:46:14.209Z,100705.25
2018-06-05T23:48:47.565Z,100709.95
2018-06-05T23:51:20.997Z,100706.97
2018-06-05T23:53:55.000Z,100711.25
2018-06-05T23:56:28.339Z,100715.74
2018-06-05T23:59:01.790Z,100710.72
